createdAt,value
2018-12-30T00:01:51.248Z,94.70
2018-12-30T00:04:21.816Z,94.80
2018-12-30T00:06:52.197Z,94.70
2018-12-30T00:09:22.259Z,94.90
2018-12-30T00:11:52.338Z,94.60
2018-12-30T00:14:22.457Z,96.20
2018-12-30T00:16:52.409Z,94.70
2018-12-30T00:19:22.268Z,94.90
2018-12-30T00:21:52.513Z,94.60
2018-12-30T00:24:22.513Z,96.20
2018-12-30T00:26:52.565Z,95.70
2018-12-30T00:29:22.649Z,94.70
2018-12-30T00:31:52.601Z,94.60
2018-12-30T00:34:22.581Z,94.30
2018-12-30T00:36:52.429Z,95.70
2018-12-30T00:39:22.402Z,94.20
2018-12-30T00:41:52.929Z,94.50
2018-12-30T00:44:25.016Z,95.60
2018-12-30T00:46:55.267Z,95.30
2018-12-30T00:49:25.437Z,95.90
2018-12-30T00:51:55.650Z,95.80
2018-12-30T00:54:25.876Z,96.40
2018-12-30T00:56:56.045Z,96.50
2018-12-30T00:59:26.245Z,95.60
2018-12-30T01:01:56.296Z,96.90
2018-12-30T01:04:26.373Z,95.50
2018-12-30T01:06:56.812Z,95.10
2018-12-30T01:09:26.708Z,94.60
2018-12-30T01:11:56.652Z,94.50
2018-12-30T01:14:26.537Z,94.70
2018-12-30T01:16:56.586Z,95.60
2018-12-30T01:19:26.350Z,94.00
2018-12-30T01:21:56.309Z,94.20
2018-12-30T01:24:26.188Z,93.20
2018-12-30T01:26:56.149Z,92.70
2018-12-30T01:29:26.433Z,91.90
2018-12-30T01:31:56.436Z,92.30
2018-12-30T01:34:26.778Z,94.40
2018-12-30T01:36:57.585Z,94.70
2018-12-30T01:39:27.851Z,93.90
2018-12-30T01:41:57.737Z,94.60
2018-12-30T01:44:27.692Z,94.30
2018-12-30T01:46:57.769Z,92.80
2018-12-30T01:49:27.710Z,93.20
2018-12-30T01:51:57.994Z,92.60
2018-12-30T01:54:27.861Z,93.40
2018-12-30T01:56:57.721Z,93.90
2018-12-30T01:59:27.688Z,94.40
2018-12-30T02:01:57.668Z,92.60
2018-12-30T02:04:28.294Z,93.30
2018-12-30T02:06:58.208Z,93.50
2018-12-30T02:09:28.064Z,93.80
2018-12-30T02:11:58.041Z,93.70
2018-12-30T02:14:27.997Z,92.30
2018-12-30T02:16:58.072Z,93.10
2018-12-30T02:19:27.909Z,94.30
2018-12-30T02:21:58.256Z,93.90
2018-12-30T02:24:28.265Z,93.30
2018-12-30T02:26:58.237Z,93.30
2018-12-30T02:29:28.189Z,92.70
2018-12-30T02:31:58.581Z,92.30
2018-12-30T02:34:28.648Z,91.80
2018-12-30T02:36:58.605Z,91.60
2018-12-30T02:39:28.877Z,91.90
2018-12-30T02:41:59.157Z,91.60
2018-12-30T02:44:29.060Z,90.10
2018-12-30T02:46:58.925Z,90.70
2018-12-30T02:49:29.112Z,92.20
2018-12-30T02:51:59.156Z,90.70
2018-12-30T02:54:29.132Z,92.90
2018-12-30T02:57:01.048Z,93.20
2018-12-30T02:59:30.916Z,92.60
2018-12-30T03:02:01.385Z,91.80
2018-12-30T03:04:31.452Z,91.90
2018-12-30T03:07:01.871Z,94.40
2018-12-30T03:09:32.009Z,93.90
2018-12-30T03:12:02.457Z,93.20
2018-12-30T03:14:33.252Z,93.30
2018-12-30T03:17:05.620Z,91.80
2018-12-30T03:19:36.485Z,92.40
2018-12-30T03:22:06.982Z,92.50
2018-12-30T03:24:37.001Z,93.10
2018-12-30T03:27:07.045Z,92.70
2018-12-30T03:29:37.056Z,92.90
2018-12-30T03:32:07.006Z,91.60
2018-12-30T03:34:37.094Z,92.70
2018-12-30T03:37:07.045Z,92.00
2018-12-30T03:39:37.120Z,91.70
2018-12-30T03:42:07.317Z,93.10
2018-12-30T03:44:37.621Z,93.30
2018-12-30T03:47:07.596Z,92.00
2018-12-30T03:49:37.383Z,90.80
2018-12-30T03:52:08.910Z,90.60
2018-12-30T03:54:39.161Z,93.20
2018-12-30T03:57:09.670Z,93.00
2018-12-30T03:59:39.488Z,92.00
2018-12-30T04:02:09.437Z,90.20
2018-12-30T04:04:39.327Z,90.00
2018-12-30T04:07:09.172Z,90.50
2018-12-30T04:09:39.250Z,90.40
2018-12-30T04:12:09.361Z,90.60
2018-12-30T04:14:39.305Z,90.50
2018-12-30T04:17:09.288Z,90.30
2018-12-30T04:19:39.324Z,90.80
2018-12-30T04:22:16.681Z,87.80
2018-12-30T04:24:41.016Z,90.40
2018-12-30T04:27:11.157Z,90.40
2018-12-30T04:29:41.328Z,90.90
2018-12-30T04:32:11.296Z,90.50
2018-12-30T04:34:41.372Z,90.70
2018-12-30T04:37:11.332Z,91.50
2018-12-30T04:39:41.454Z,90.60
2018-12-30T04:42:11.516Z,90.10
2018-12-30T04:44:42.457Z,90.70
2018-12-30T04:47:12.565Z,90.00
2018-12-30T04:49:43.093Z,89.40
2018-12-30T04:52:13.620Z,89.40
2018-12-30T04:54:43.949Z,89.70
2018-12-30T04:57:14.381Z,90.30
2018-12-30T04:59:44.849Z,90.20
2018-12-30T05:02:15.036Z,90.80
2018-12-30T05:04:45.296Z,90.60
2018-12-30T05:07:15.968Z,90.80
2018-12-30T05:09:46.149Z,89.80
2018-12-30T05:12:16.124Z,90.90
2018-12-30T05:14:46.192Z,91.20
2018-12-30T05:17:16.558Z,90.50
2018-12-30T05:19:46.302Z,91.40
2018-12-30T05:22:16.201Z,90.60
2018-12-30T05:24:46.289Z,89.00
2018-12-30T05:27:16.342Z,90.10
2018-12-30T05:29:46.271Z,89.10
2018-12-30T05:32:16.358Z,92.00
2018-12-30T05:34:46.509Z,91.10
2018-12-30T05:37:16.710Z,90.40
2018-12-30T05:39:46.547Z,90.30
2018-12-30T05:42:17.018Z,89.70
2018-12-30T05:44:47.813Z,88.90
2018-12-30T05:47:17.993Z,88.50
2018-12-30T05:49:47.953Z,90.60
2018-12-30T05:52:18.025Z,90.60
2018-12-30T05:54:47.880Z,90.40
2018-12-30T05:57:17.855Z,87.50
2018-12-30T05:59:47.903Z,91.40
2018-12-30T06:02:17.677Z,90.90
2018-12-30T06:04:47.748Z,90.20
2018-12-30T06:07:17.830Z,90.80
2018-12-30T06:09:47.772Z,90.50
2018-12-30T06:12:18.163Z,92.10
2018-12-30T06:14:48.532Z,92.40
2018-12-30T06:17:19.244Z,91.20
2018-12-30T06:19:49.381Z,91.90
2018-12-30T06:22:19.446Z,92.20
2018-12-30T06:24:49.857Z,91.60
2018-12-30T06:27:19.784Z,91.70
2018-12-30T06:29:49.944Z,91.50
2018-12-30T06:32:19.912Z,90.80
2018-12-30T06:34:49.977Z,91.20
2018-12-30T06:37:19.960Z,92.10
2018-12-30T06:39:49.899Z,90.10
2018-12-30T06:42:19.685Z,92.90
2018-12-30T06:44:50.048Z,92.20
2018-12-30T06:47:21.451Z,92.70
2018-12-30T06:49:51.414Z,92.60
2018-12-30T06:52:21.392Z,92.20
2018-12-30T06:54:51.396Z,92.20
2018-12-30T06:57:21.452Z,92.20
2018-12-30T06:59:51.432Z,94.60
2018-12-30T07:02:22.461Z,93.40
2018-12-30T07:04:52.500Z,93.20
2018-12-30T07:07:22.436Z,94.50
2018-12-30T07:09:52.199Z,92.80
2018-12-30T07:12:22.161Z,94.70
2018-12-30T07:14:51.941Z,94.20
2018-12-30T07:17:22.000Z,94.60
2018-12-30T07:19:52.388Z,95.20
2018-12-30T07:22:22.333Z,94.40
2018-12-30T07:24:52.524Z,93.40
2018-12-30T07:27:22.572Z,93.60
2018-12-30T07:29:52.562Z,91.90
2018-12-30T07:32:22.820Z,92.10
2018-12-30T07:34:52.777Z,93.40
2018-12-30T07:37:22.941Z,94.40
2018-12-30T07:39:52.925Z,94.20
2018-12-30T07:42:22.889Z,95.10
2018-12-30T07:44:53.055Z,93.00
2018-12-30T07:47:23.124Z,92.90
2018-12-30T07:49:53.088Z,93.20
2018-12-30T07:52:23.146Z,93.60
2018-12-30T07:54:53.016Z,93.20
2018-12-30T07:57:22.968Z,91.40
2018-12-30T07:59:52.856Z,91.10
2018-12-30T08:02:22.813Z,92.00
2018-12-30T08:04:52.901Z,92.70
2018-12-30T08:07:22.949Z,93.20
2018-12-30T08:09:53.015Z,93.80
2018-12-30T08:12:22.981Z,92.30
2018-12-30T08:14:54.578Z,91.30
2018-12-30T08:17:24.848Z,90.70
2018-12-30T08:19:55.041Z,90.30
2018-12-30T08:22:25.621Z,90.20
2018-12-30T08:24:55.853Z,90.20
2018-12-30T08:27:26.199Z,90.10
2018-12-30T08:29:56.521Z,89.30
2018-12-30T08:32:26.595Z,88.60
2018-12-30T08:34:57.579Z,90.10
2018-12-30T08:37:27.749Z,89.40
2018-12-30T08:39:57.831Z,87.50
2018-12-30T08:42:27.786Z,88.80
2018-12-30T08:44:57.863Z,88.30
2018-12-30T08:47:27.914Z,88.10
2018-12-30T08:49:57.997Z,87.50
2018-12-30T08:52:28.063Z,86.90
2018-12-30T08:54:58.036Z,88.80
2018-12-30T08:57:28.090Z,87.80
2018-12-30T08:59:58.168Z,86.90
2018-12-30T09:02:28.241Z,86.90
2018-12-30T09:04:58.105Z,86.40
2018-12-30T09:07:28.228Z,86.20
2018-12-30T09:09:58.443Z,86.10
2018-12-30T09:12:28.646Z,84.70
2018-12-30T09:14:58.596Z,84.50
2018-12-30T09:17:28.692Z,86.40
2018-12-30T09:19:58.759Z,88.20
2018-12-30T09:22:29.176Z,87.30
2018-12-30T09:24:59.549Z,87.40
2018-12-30T09:27:30.282Z,87.70
2018-12-30T09:30:00.840Z,86.90
2018-12-30T09:32:31.448Z,87.20
2018-12-30T09:35:02.151Z,88.10
2018-12-30T09:37:32.421Z,86.90
2018-12-30T09:40:04.573Z,90.20
2018-12-30T09:42:35.321Z,91.30
2018-12-30T09:45:05.922Z,91.20
2018-12-30T09:47:35.849Z,92.70
2018-12-30T09:50:06.235Z,92.80
2018-12-30T09:52:36.197Z,90.80
2018-12-30T09:55:06.252Z,92.60
2018-12-30T09:57:36.522Z,93.20
2018-12-30T10:00:06.692Z,92.90
2018-12-30T10:02:36.793Z,92.80
2018-12-30T10:05:06.820Z,91.70
2018-12-30T10:07:36.801Z,91.50
2018-12-30T10:10:06.977Z,92.90
2018-12-30T10:12:37.138Z,92.40
2018-12-30T10:15:09.725Z,93.10
2018-12-30T10:17:39.216Z,92.90
2018-12-30T10:20:09.691Z,93.20
2018-12-30T10:22:39.668Z,93.70
2018-12-30T10:25:11.480Z,94.40
2018-12-30T10:27:41.428Z,94.50
2018-12-30T10:30:11.912Z,93.10
2018-12-30T10:32:41.793Z,93.00
2018-12-30T10:35:11.736Z,93.70
2018-12-30T10:37:41.722Z,92.90
2018-12-30T10:40:11.661Z,92.30
2018-12-30T10:42:41.657Z,93.50
2018-12-30T10:45:11.746Z,92.90
2018-12-30T10:47:41.995Z,94.10
2018-12-30T10:50:12.457Z,94.40
2018-12-30T10:52:42.540Z,94.00
2018-12-30T10:55:13.553Z,92.10
2018-12-30T10:57:45.860Z,90.50
2018-12-30T11:00:16.293Z,91.10
2018-12-30T11:02:46.276Z,92.40
2018-12-30T11:05:16.224Z,91.50
2018-12-30T11:07:46.312Z,93.10
2018-12-30T11:10:16.181Z,92.10
2018-12-30T11:12:46.236Z,93.90
2018-12-30T11:15:16.254Z,92.20
2018-12-30T11:17:46.221Z,90.70
2018-12-30T11:20:16.297Z,90.10
2018-12-30T11:22:46.242Z,91.80
2018-12-30T11:25:16.121Z,91.10
2018-12-30T11:27:46.184Z,92.30
2018-12-30T11:30:16.268Z,93.10
2018-12-30T11:32:46.314Z,94.70
2018-12-30T11:35:16.175Z,93.10
2018-12-30T11:37:46.047Z,93.00
2018-12-30T11:40:16.012Z,93.10
2018-12-30T11:42:45.961Z,93.70
2018-12-30T11:45:16.108Z,92.50
2018-12-30T11:47:47.349Z,92.30
2018-12-30T11:50:17.310Z,92.60
2018-12-30T11:52:47.157Z,91.70
2018-12-30T11:55:16.933Z,92.80
2018-12-30T11:57:46.880Z,92.10
2018-12-30T12:00:17.063Z,93.10
2018-12-30T12:02:47.133Z,92.90
2018-12-30T12:05:18.316Z,91.50
2018-12-30T12:07:48.392Z,92.30
2018-12-30T12:10:18.569Z,92.70
2018-12-30T12:12:49.113Z,90.50
2018-12-30T12:15:20.039Z,92.30
2018-12-30T12:17:49.950Z,92.70
2018-12-30T12:20:19.897Z,93.00
2018-12-30T12:22:49.764Z,94.00
2018-12-30T12:25:19.952Z,92.70
2018-12-30T12:27:50.012Z,94.30
2018-12-30T12:30:21.688Z,93.80
2018-12-30T12:32:52.217Z,91.90
2018-12-30T12:35:22.360Z,92.70
2018-12-30T12:37:52.712Z,92.90
2018-12-30T12:40:22.960Z,91.80
2018-12-30T12:42:53.800Z,90.70
2018-12-30T12:45:25.338Z,90.10
2018-12-30T12:47:55.678Z,90.00
2018-12-30T12:50:25.737Z,90.70
2018-12-30T12:52:55.813Z,91.80
2018-12-30T12:55:25.662Z,93.00
2018-12-30T12:57:55.641Z,93.10
2018-12-30T13:00:25.493Z,93.70
2018-12-30T13:02:55.464Z,93.60
2018-12-30T13:05:25.313Z,94.10
2018-12-30T13:07:55.088Z,95.20
2018-12-30T13:10:25.518Z,93.50
2018-12-30T13:12:55.741Z,93.70
2018-12-30T13:15:26.669Z,93.90
2018-12-30T13:17:57.103Z,94.80
2018-12-30T13:20:26.949Z,94.70
2018-12-30T13:22:56.936Z,94.80
2018-12-30T13:25:26.897Z,94.60
2018-12-30T13:27:56.957Z,93.70
2018-12-30T13:30:26.980Z,94.00
2018-12-30T13:32:56.928Z,93.60
2018-12-30T13:35:27.124Z,93.70
2018-12-30T13:37:57.063Z,94.40
2018-12-30T13:40:27.112Z,94.20
2018-12-30T13:42:57.307Z,94.60
2018-12-30T13:45:27.282Z,94.90
2018-12-30T13:47:57.241Z,94.20
2018-12-30T13:50:27.217Z,94.20
2018-12-30T13:52:57.172Z,93.00
2018-12-30T13:55:27.248Z,92.70
2018-12-30T13:57:57.381Z,91.60
2018-12-30T14:00:27.294Z,91.30
2018-12-30T14:02:57.225Z,91.30
2018-12-30T14:05:27.213Z,91.10
2018-12-30T14:07:57.164Z,91.90
2018-12-30T14:10:27.153Z,92.50
2018-12-30T14:12:57.552Z,93.50
2018-12-30T14:15:28.217Z,95.00
2018-12-30T14:17:58.817Z,95.20
2018-12-30T14:20:28.861Z,95.40
2018-12-30T14:22:58.805Z,93.80
2018-12-30T14:25:28.873Z,92.10
2018-12-30T14:27:58.837Z,92.40
2018-12-30T14:30:28.925Z,94.70
2018-12-30T14:32:58.824Z,93.80
2018-12-30T14:35:28.891Z,92.70
2018-12-30T14:37:58.964Z,93.00
2018-12-30T14:40:30.032Z,94.50
2018-12-30T14:43:00.040Z,94.60
2018-12-30T14:45:29.878Z,92.90
2018-12-30T14:47:59.949Z,92.30
2018-12-30T14:50:29.809Z,91.00
2018-12-30T14:52:59.777Z,91.30
2018-12-30T14:55:29.735Z,91.50
2018-12-30T14:57:59.821Z,93.40
2018-12-30T15:00:29.756Z,92.50
2018-12-30T15:02:59.750Z,93.50
2018-12-30T15:05:30.016Z,93.10
2018-12-30T15:08:00.199Z,94.30
2018-12-30T15:10:30.133Z,94.50
2018-12-30T15:13:00.110Z,94.20
2018-12-30T15:15:30.073Z,95.00
2018-12-30T15:18:00.055Z,95.50
2018-12-30T15:20:30.201Z,95.30
2018-12-30T15:23:00.187Z,94.20
2018-12-30T15:25:30.402Z,95.70
2018-12-30T15:28:00.424Z,95.50
2018-12-30T15:30:31.088Z,96.50
2018-12-30T15:33:01.061Z,95.00
2018-12-30T15:35:32.254Z,95.30
2018-12-30T15:38:02.626Z,94.60
2018-12-30T15:40:33.106Z,93.70
2018-12-30T15:43:03.097Z,93.30
2018-12-30T15:45:33.332Z,92.50
2018-12-30T15:48:03.426Z,93.50
2018-12-30T15:50:33.267Z,93.70
2018-12-30T15:53:03.149Z,93.50
2018-12-30T15:55:35.517Z,94.90
2018-12-30T15:58:06.568Z,93.50
2018-12-30T16:00:36.522Z,94.20
2018-12-30T16:03:06.647Z,94.50
2018-12-30T16:05:36.537Z,94.40
2018-12-30T16:08:06.412Z,94.40
2018-12-30T16:10:36.278Z,93.20
2018-12-30T16:13:07.858Z,92.10
2018-12-30T16:15:37.897Z,92.00
2018-12-30T16:18:07.849Z,93.00
2018-12-30T16:20:37.728Z,93.10
2018-12-30T16:23:07.784Z,94.30
2018-12-30T16:25:37.752Z,95.40
2018-12-30T16:28:07.710Z,95.30
2018-12-30T16:30:37.476Z,95.60
2018-12-30T16:33:07.320Z,97.20
2018-12-30T16:35:37.105Z,96.00
2018-12-30T16:38:07.060Z,95.90
2018-12-30T16:40:37.140Z,95.40
2018-12-30T16:43:07.309Z,96.10
2018-12-30T16:45:37.485Z,95.60
2018-12-30T16:48:07.641Z,97.80
2018-12-30T16:50:37.927Z,98.40
2018-12-30T16:53:07.777Z,97.90
2018-12-30T16:55:37.865Z,98.80
2018-12-30T16:58:07.909Z,97.20
2018-12-30T17:00:37.895Z,96.00
2018-12-30T17:03:07.940Z,95.70
2018-12-30T17:05:38.036Z,97.70
2018-12-30T17:08:07.973Z,97.10
2018-12-30T17:10:37.962Z,95.60
2018-12-30T17:13:08.009Z,95.00
2018-12-30T17:15:37.780Z,95.20
2018-12-30T17:18:08.044Z,97.10
2018-12-30T17:20:38.924Z,96.40
2018-12-30T17:23:09.352Z,97.00
2018-12-30T17:25:43.152Z,98.90
2018-12-30T17:28:11.844Z,98.10
2018-12-30T17:30:42.172Z,95.60
2018-12-30T17:33:12.134Z,96.50
2018-12-30T17:35:42.113Z,97.70
2018-12-30T17:38:14.320Z,96.50
2018-12-30T17:40:44.616Z,97.10
2018-12-30T17:43:15.392Z,97.70
2018-12-30T17:45:47.197Z,96.90
2018-12-30T17:48:17.657Z,97.10
2018-12-30T17:50:47.743Z,96.80
2018-12-30T17:53:18.051Z,97.90
2018-12-30T17:55:50.964Z,96.90
2018-12-30T17:58:20.281Z,98.50
2018-12-30T18:00:50.388Z,97.40
2018-12-30T18:03:20.316Z,97.30
2018-12-30T18:05:50.617Z,97.70
2018-12-30T18:08:20.556Z,97.90
2018-12-30T18:10:50.333Z,97.00
2018-12-30T18:13:20.078Z,96.20
2018-12-30T18:15:49.968Z,95.40
2018-12-30T18:18:19.925Z,96.00
2018-12-30T18:20:49.989Z,96.40
2018-12-30T18:23:20.073Z,95.90
2018-12-30T18:25:50.015Z,97.50
2018-12-30T18:28:21.284Z,95.90
2018-12-30T18:30:51.133Z,94.50
2018-12-30T18:33:21.195Z,94.20
2018-12-30T18:35:52.158Z,93.20
2018-12-30T18:38:22.140Z,94.70
2018-12-30T18:40:52.208Z,93.60
2018-12-30T18:43:22.297Z,96.40
2018-12-30T18:45:52.236Z,96.10
2018-12-30T18:48:22.319Z,96.70
2018-12-30T18:50:52.284Z,95.60
2018-12-30T18:53:22.465Z,97.10
2018-12-30T18:55:52.316Z,97.60
2018-12-30T18:58:22.473Z,97.70
2018-12-30T19:00:52.561Z,96.80
2018-12-30T19:03:22.732Z,95.30
2018-12-30T19:05:53.529Z,95.00
2018-12-30T19:08:23.679Z,94.40
2018-12-30T19:10:53.745Z,95.50
2018-12-30T19:13:24.232Z,96.10
2018-12-30T19:15:54.169Z,97.10
2018-12-30T19:18:24.260Z,96.90
2018-12-30T19:20:54.208Z,98.90
2018-12-30T19:23:24.992Z,99.10
2018-12-30T19:26:00.992Z,99.30
2018-12-30T19:28:26.883Z,99.90
2018-12-30T19:30:56.830Z,99.20
2018-12-30T19:33:27.028Z,98.80
2018-12-30T19:35:57.090Z,99.30
2018-12-30T19:38:27.173Z,99.90
2018-12-30T19:40:58.332Z,99.90
2018-12-30T19:43:28.424Z,98.80
2018-12-30T19:45:58.392Z,99.60
2018-12-30T19:48:28.452Z,98.80
2018-12-30T19:50:58.522Z,96.70
2018-12-30T19:53:28.593Z,97.20
2018-12-30T19:55:58.664Z,94.50
2018-12-30T19:58:28.748Z,94.20
2018-12-30T20:00:58.989Z,95.20
2018-12-30T20:03:29.052Z,97.50
2018-12-30T20:05:59.032Z,97.30
2018-12-30T20:08:29.317Z,96.80
2018-12-30T20:10:59.241Z,97.50
2018-12-30T20:13:29.445Z,96.50
2018-12-30T20:16:01.466Z,97.50
2018-12-30T20:18:31.455Z,99.00
2018-12-30T20:21:01.536Z,96.30
2018-12-30T20:23:31.482Z,97.50
2018-12-30T20:26:01.585Z,94.40
2018-12-30T20:28:31.637Z,98.20
2018-12-30T20:31:01.609Z,96.70
2018-12-30T20:33:31.656Z,95.90
2018-12-30T20:36:01.521Z,96.50
2018-12-30T20:38:31.481Z,95.40
2018-12-30T20:41:01.556Z,95.00
2018-12-30T20:43:31.413Z,96.00
2018-12-30T20:46:01.604Z,94.60
2018-12-30T20:48:31.758Z,93.20
2018-12-30T20:51:01.840Z,94.50
2018-12-30T20:53:32.308Z,93.50
2018-12-30T20:56:02.380Z,94.60
2018-12-30T20:58:32.509Z,92.50
2018-12-30T21:01:02.721Z,93.20
2018-12-30T21:03:32.769Z,91.70
2018-12-30T21:06:02.859Z,92.00
2018-12-30T21:08:33.468Z,91.70
2018-12-30T21:11:04.139Z,90.90
2018-12-30T21:13:34.086Z,91.30
2018-12-30T21:16:03.955Z,90.60
2018-12-30T21:18:34.220Z,91.50
2018-12-30T21:21:04.493Z,90.80
2018-12-30T21:23:35.005Z,93.40
2018-12-30T21:26:05.362Z,92.20
2018-12-30T21:28:35.612Z,93.80
2018-12-30T21:31:05.973Z,95.60
2018-12-30T21:33:36.429Z,94.60
2018-12-30T21:36:06.638Z,96.60
2018-12-30T21:38:37.408Z,95.20
2018-12-30T21:41:07.591Z,94.00
2018-12-30T21:43:37.857Z,94.10
2018-12-30T21:46:08.125Z,93.30
2018-12-30T21:48:38.544Z,95.40
2018-12-30T21:51:08.779Z,94.20
2018-12-30T21:53:38.910Z,96.00
2018-12-30T21:56:08.955Z,93.40
2018-12-30T21:58:39.160Z,95.40
2018-12-30T22:01:09.309Z,96.70
2018-12-30T22:03:39.588Z,98.10
2018-12-30T22:06:09.745Z,98.60
2018-12-30T22:08:39.851Z,96.20
2018-12-30T22:11:09.973Z,98.70
2018-12-30T22:13:39.853Z,99.80
2018-12-30T22:16:09.919Z,97.30
2018-12-30T22:18:40.094Z,97.00
2018-12-30T22:21:10.625Z,97.30
2018-12-30T22:23:41.359Z,96.20
2018-12-30T22:26:11.521Z,98.20
2018-12-30T22:28:42.221Z,97.00
2018-12-30T22:31:12.360Z,98.50
2018-12-30T22:33:43.148Z,99.10
2018-12-30T22:36:13.404Z,97.60
2018-12-30T22:38:43.608Z,98.30
2018-12-30T22:41:13.552Z,97.30
2018-12-30T22:43:43.632Z,97.70
2018-12-30T22:46:13.792Z,97.10
2018-12-30T22:48:43.885Z,95.20
2018-12-30T22:51:13.926Z,97.10
2018-12-30T22:53:44.529Z,95.80
2018-12-30T22:56:14.371Z,94.80
2018-12-30T22:58:44.236Z,96.70
2018-12-30T23:01:20.465Z,95.20
2018-12-30T23:03:50.836Z,95.40
2018-12-30T23:06:21.772Z,95.70
2018-12-30T23:08:51.798Z,94.10
2018-12-30T23:11:21.873Z,95.40
2018-12-30T23:13:51.721Z,99.20
2018-12-30T23:16:21.676Z,95.80
2018-12-30T23:18:51.562Z,95.80
2018-12-30T23:21:21.614Z,94.50
2018-12-30T23:23:51.584Z,94.00
2018-12-30T23:26:21.637Z,94.20
2018-12-30T23:28:51.712Z,92.90
2018-12-30T23:31:21.784Z,91.80
2018-12-30T23:33:51.961Z,95.00
2018-12-30T23:36:21.970Z,93.90
2018-12-30T23:38:52.044Z,92.80
2018-12-30T23:41:22.412Z,91.70
2018-12-30T23:43:53.771Z,94.70
2018-12-30T23:46:23.691Z,92.50
2018-12-30T23:48:53.646Z,91.10
2018-12-30T23:51:23.620Z,90.70
2018-12-30T23:53:53.667Z,90.80
2018-12-30T23:56:23.827Z,90.70
2018-12-30T23:58:53.900Z,93.50
